Dalmeny, Canada
Current Conditions -  °F | °C
As of 2:23 AM on Sunday 23 Nov 2014 (Local Time) from CYXE Reporting Station
Light Snow Light Snow  
Wind Chill: -5°   Ceiling: 3500
Heat Index: 12°   Visibility: 3mi
Dew Point:   Wind: 17mph
Humidity: 85%   Direction: 20°NNE
Pressure: 29.59"   Gusts: NA
Location:  52.33°N, 106.78°W
Report Text: CYXE 230823Z 02015KT 3SM -SN DRSN SCT014 OVC035 M11/M13 A2959 RMK SC4SC4 SLP052
Loading
Personal Weather Stations






























Interactive Weather Map New forecast layout! Learn more

10-Day Weather Forecast

Advertisements
Track Severe Weather on mobile